Lady Of Lourdes — WDE5493 — position and weather

sailwx.info

Track history (hours):
 
Tides and Currents Weather Stations Pressure Air Temp Water Temp Dewpoint Dewpoint Depression Visibility Wind Speed Wind Dir Waves Ship Positions

Lady Of Lourdes

Owner: Marquette Transportation Company Gulf-Inland, LLC, Jefferson, LA. More information available from US FCC via Universal Licensing System and Coast Guard Vessel Documentation Center.

Last reported at 2018-Apr-25 14:00 UTC. Time now 2018-Apr-25 14:05 UTC.
Position N 29°46' W 095°06'.

Length 81 m; draft 3 m.

Type: . MMSI: 367367530.

Date/timePositionNaut miles runAvg speedWind from/ knotsBaromVisibWave heightAir tempDewpointWater temp
2018-Apr-25 14:00N 29°46' W 095°06'0 0.8
2018-Apr-25 13:30N 29°45' W 095°06'0 0.0
2018-Apr-25 13:00N 29°45' W 095°06'0 0.0
2018-Apr-25 12:30N 29°45' W 095°06'1 1.2
2018-Apr-25 12:00N 29°46' W 095°05'0 0.6
2018-Apr-25 11:30N 29°46' W 095°05'3 6.7
2018-Apr-25 10:59N 29°44' W 095°02'3 6.0
2018-Apr-25 10:30N 29°42' W 094°60'3 6.8
2018-Apr-25 10:00N 29°39' W 094°58'3 6.2
2018-Apr-25 09:30N 29°36' W 094°57'4 7.3
2018-Apr-25 09:00N 29°33' W 094°54'4 7.2
2018-Apr-25 08:30N 29°30' W 094°52'4 7.1
2018-Apr-25 08:00N 29°26' W 094°50'4 7.0
2018-Apr-25 07:26N 29°23' W 094°48'3 5.3
2018-Apr-25 06:51N 29°24' W 094°45'3 3.9
2018-Apr-25 06:12N 29°26' W 094°43'0 0.0
2018-Apr-25 06:00N 29°26' W 094°43'0 0.0
2018-Apr-25 05:30N 29°26' W 094°43'0 0.0
2018-Apr-25 05:00N 29°26' W 094°43'0 0.2
2018-Apr-25 04:30N 29°26' W 094°43'0 0.2
2018-Apr-25 03:58N 29°26' W 094°43'1 3.2
2018-Apr-25 03:30N 29°27' W 094°42'2 3.8
2018-Apr-25 03:00N 29°28' W 094°40'2 4.8
2018-Apr-25 02:30N 29°29' W 094°37'2 4.8
2018-Apr-25 02:00N 29°30' W 094°35'2 4.5
2018-Apr-25 01:27N 29°30' W 094°32'2 4.2
2018-Apr-25 00:58N 29°31' W 094°30'2 4.5
2018-Apr-25 00:30N 29°33' W 094°28'3 4.4
2018-Apr-24 23:45N 29°34' W 094°25'1 4.2
2018-Apr-24 23:26N 29°36' W 094°25'7 4.5
2018-Apr-24 21:57N 29°38' W 094°17'2 4.7
2018-Apr-24 21:27N 29°39' W 094°15'2 4.7
2018-Apr-24 21:00N 29°40' W 094°13'2 4.5
2018-Apr-24 20:30N 29°41' W 094°10'2 3.6
2018-Apr-24 20:00N 29°42' W 094°09'2 4.2
2018-Apr-24 19:30N 29°43' W 094°07'3 5.4
2018-Apr-24 19:00N 29°45' W 094°04'3 5.4
2018-Apr-24 18:30N 29°47' W 094°02'2 4.7
2018-Apr-24 18:00N 29°48' W 093°60'1 2.2
2018-Apr-24 17:30N 29°49' W 093°59'0 0.3
2018-Apr-24 17:00N 29°49' W 093°59'1 1.6
2018-Apr-24 16:30N 29°49' W 093°58'3 5.9
2018-Apr-24 16:00N 29°52' W 093°56'3 6.5
2018-Apr-24 15:30N 29°54' W 093°54'3 6.4
2018-Apr-24 15:00N 29°57' W 093°52'1 2.8
2018-Apr-24 14:30N 29°58' W 093°51'0 0.2
2018-Apr-24 14:00N 29°58' W 093°51'0 0.1
2018-Apr-24 13:30N 29°58' W 093°51'0 0.6
2018-Apr-24 13:00N 29°58' W 093°51'0 0.5
2018-Apr-24 12:30N 29°58' W 093°51'2 4.9
2018-Apr-24 12:00N 29°59' W 093°48'3 6.2
2018-Apr-24 11:30N 30°01' W 093°45'3 5.7
2018-Apr-24 11:00N 30°03' W 093°43'3 5.0
2018-Apr-24 10:30N 30°04' W 093°40'2 4.8
2018-Apr-24 10:00N 30°04' W 093°37'2 4.5
2018-Apr-24 09:30N 30°04' W 093°35'2 4.1
2018-Apr-24 09:00N 30°04' W 093°33'2 4.1
2018-Apr-24 08:30N 30°04' W 093°30'2 4.0
2018-Apr-24 08:00N 30°04' W 093°28'2 4.1
2018-Apr-24 07:30N 30°04' W 093°25'2 4.1
2018-Apr-24 07:00N 30°04' W 093°23'1 2.5
2018-Apr-24 06:30N 30°04' W 093°22'0 0.0
2018-Apr-24 06:00N 30°04' W 093°22'0 0.0
2018-Apr-24 05:30N 30°04' W 093°22'0 0.2
2018-Apr-24 05:00N 30°04' W 093°22'0 0.9
2018-Apr-24 04:30N 30°04' W 093°22'1 2.3
2018-Apr-24 04:00N 30°04' W 093°23'0 0.6
2018-Apr-24 03:30N 30°04' W 093°24'2 4.1
2018-Apr-24 03:00N 30°04' W 093°26'2 4.2
2018-Apr-24 02:30N 30°04' W 093°29'3 6.3
2018-Apr-24 02:00N 30°04' W 093°32'3 6.2
2018-Apr-24 01:30N 30°04' W 093°36'3 6.2
2018-Apr-24 01:00N 30°04' W 093°39'3 6.2
2018-Apr-24 00:29N 30°03' W 093°43'3 5.3
2018-Apr-24 00:00N 30°01' W 093°45'3 5.5
2018-Apr-23 23:30N 29°59' W 093°47'3 6.0
2018-Apr-23 23:00N 29°58' W 093°50'1 1.7
2018-Apr-23 22:30N 29°58' W 093°51'1 3.0
2018-Apr-23 22:00N 29°57' W 093°52'3 6.9
2018-Apr-23 21:30N 29°54' W 093°54'3 6.6
2018-Apr-23 21:00N 29°51' W 093°57'3 5.3
2018-Apr-23 20:30N 29°49' W 093°59'2 4.0
2018-Apr-23 20:00N 29°48' W 094°00'3 5.2
2018-Apr-23 19:30N 29°46' W 094°03'3 5.0
2018-Apr-23 19:00N 29°45' W 094°05'2 4.9
2018-Apr-23 18:30N 29°43' W 094°07'2 4.8
2018-Apr-23 17:59N 29°42' W 094°09'2 4.9
2018-Apr-23 17:30N 29°41' W 094°12'3 5.1
2018-Apr-23 17:00N 29°40' W 094°15'3 5.2
2018-Apr-23 16:30N 29°38' W 094°17'6 5.1
2018-Apr-23 15:21N 29°36' W 094°23'6 4.2
2018-Apr-23 14:01N 29°32' W 094°28'0 0.0
2018-Apr-23 14:00N 29°32' W 094°28'0 1.0
2018-Apr-23 13:30N 29°32' W 094°29'20 1.8
2018-Apr-23 02:22N 29°26' W 094°50'3 8.5
2018-Apr-23 02:00N 29°29' W 094°52'4 8.4
2018-Apr-23 01:30N 29°33' W 094°54'4 8.1
2018-Apr-23 01:00N 29°36' W 094°57'4 8.3
2018-Apr-23 00:30N 29°40' W 094°59'5 7.7
2018-Apr-22 23:54N 29°44' W 095°02'4 8.2
2018-Apr-22 23:28N 29°46' W 095°05'0 0.2
2018-Apr-22 21:52N 29°46' W 095°05'1 3.6
2018-Apr-22 21:30N 29°47' W 095°04'2 3.8
2018-Apr-22 21:01N 29°45' W 095°04'3 6.0
2018-Apr-22 20:30N 29°43' W 095°01'3 5.9
2018-Apr-22 20:00N 29°41' W 094°59'3 6.6
2018-Apr-22 19:30N 29°38' W 094°58'3 7.0
2018-Apr-22 19:00N 29°35' W 094°56'4 7.0
2018-Apr-22 18:30N 29°32' W 094°54'4 7.3
2018-Apr-22 18:00N 29°29' W 094°51'4 7.8
2018-Apr-22 17:28N 29°25' W 094°49'3 6.7
2018-Apr-22 17:00N 29°22' W 094°48'5 3.9
2018-Apr-22 15:41N 29°26' W 094°43'0 0.2
2018-Apr-22 15:18N 29°26' W 094°43'0 0.1
2018-Apr-22 14:47N 29°26' W 094°43'3 2.8
2018-Apr-22 13:41N 29°28' W 094°40'1 4.8
2018-Apr-22 13:30N 29°28' W 094°39'7 4.4
2018-Apr-22 11:53N 29°31' W 094°32'5 4.5
2018-Apr-22 10:41N 29°34' W 094°27'2 4.0
2018-Apr-22 10:17N 29°34' W 094°25'1 3.7
2018-Apr-22 10:00N 29°35' W 094°25'2 4.1
2018-Apr-22 09:26N 29°36' W 094°22'0 0.2
2018-Apr-22 09:00N 29°36' W 094°22'2 3.7
2018-Apr-22 08:30N 29°37' W 094°20'2 4.6
2018-Apr-22 08:00N 29°38' W 094°18'2 4.8
2018-Apr-22 07:30N 29°39' W 094°16'2 4.4
2018-Apr-22 07:00N 29°40' W 094°13'2 4.6
2018-Apr-22 06:30N 29°41' W 094°11'2 4.7
2018-Apr-22 06:00N 29°42' W 094°09'3 5.1
2018-Apr-22 05:30N 29°44' W 094°06'3 5.3
2018-Apr-22 05:01N 29°45' W 094°04'3 5.2
2018-Apr-22 04:30N 29°47' W 094°02'2 4.8
2018-Apr-22 04:00N 29°49' W 093°60'2 4.3
2018-Apr-22 03:31N 29°50' W 093°57'3 6.2
2018-Apr-22 03:00N 29°52' W 093°56'3 6.3
2018-Apr-22 02:31N 29°55' W 093°53'3 5.8
2018-Apr-22 02:01N 29°57' W 093°52'2 3.1
2018-Apr-22 01:30N 29°58' W 093°50'3 5.1
2018-Apr-22 01:00N 29°59' W 093°48'3 5.5
2018-Apr-22 00:28N 30°01' W 093°45'2 4.5
2018-Apr-22 00:00N 30°03' W 093°44'3 4.3
2018-Apr-21 23:25N 30°04' W 093°41'3 3.6
2018-Apr-21 22:38N 30°04' W 093°38'1 4.2
2018-Apr-21 22:26N 30°04' W 093°37'2 4.3
2018-Apr-21 22:00N 30°04' W 093°34'2 4.5
2018-Apr-21 21:30N 30°04' W 093°32'2 4.4
2018-Apr-21 21:00N 30°04' W 093°29'2 4.5
2018-Apr-21 20:30N 30°04' W 093°27'2 4.6
2018-Apr-21 20:00N 30°04' W 093°24'2 4.2
2018-Apr-21 19:30N 30°04' W 093°22'0 0.2
2018-Apr-21 19:01N 30°04' W 093°22'0 0.1
2018-Apr-21 18:31N 30°04' W 093°22'0 0.5
2018-Apr-21 18:00N 30°04' W 093°22'2 3.8
2018-Apr-21 17:30N 30°04' W 093°24'3 6.5
2018-Apr-21 17:00N 30°04' W 093°28'3 6.6
2018-Apr-21 16:31N 30°04' W 093°32'7 7.0
2018-Apr-21 15:34N 30°04' W 093°39'1 7.4
2018-Apr-21 15:28N 30°04' W 093°40'3 6.7
2018-Apr-21 15:00N 30°03' W 093°44'3 6.2
2018-Apr-21 14:30N 30°00' W 093°46'3 6.5
2018-Apr-21 14:00N 29°59' W 093°49'2 3.4
2018-Apr-21 13:30N 29°58' W 093°51'0 0.0
2018-Apr-21 13:00N 29°58' W 093°51'0 0.0
2018-Apr-21 12:30N 29°58' W 093°51'2 4.5
2018-Apr-21 12:00N 29°56' W 093°52'3 6.1
2018-Apr-21 11:30N 29°54' W 093°54'3 5.8
2018-Apr-21 11:00N 29°52' W 093°56'2 4.9
2018-Apr-21 10:30N 29°49' W 093°58'3 5.4
2018-Apr-21 10:01N 29°48' W 094°00'3 5.8
2018-Apr-21 09:30N 29°46' W 094°03'3 5.9
2018-Apr-21 09:00N 29°44' W 094°05'3 6.0
2018-Apr-21 08:30N 29°42' W 094°08'3 5.8
2018-Apr-21 08:00N 29°41' W 094°11'3 5.9
2018-Apr-21 07:30N 29°40' W 094°14'3 5.5
2018-Apr-21 07:00N 29°39' W 094°17'3 5.3
2018-Apr-21 06:30N 29°37' W 094°20'3 5.3
2018-Apr-21 05:57N 29°36' W 094°23'3 4.2
2018-Apr-21 05:10N 29°34' W 094°26'1 4.5
2018-Apr-21 05:00N 29°34' W 094°27'9 2.8
2018-Apr-21 01:58N 29°29' W 094°35'14 3.7
2018-Apr-20 22:14N 29°28' W 094°51'1 5.9
2018-Apr-20 22:01N 29°29' W 094°52'3 5.9
2018-Apr-20 21:31N 29°32' W 094°54'3 5.8
2018-Apr-20 21:01N 29°34' W 094°55'3 6.1
2018-Apr-20 20:30N 29°37' W 094°57'3 6.3
2018-Apr-20 19:58N 29°40' W 094°59'3 6.1
2018-Apr-20 19:31N 29°42' W 095°01'2 4.7
2018-Apr-20 18:59N 29°44' W 095°03'3 5.5
2018-Apr-20 18:21N 29°47' W 095°05'0 1.0
2018-Apr-20 18:00N 29°47' W 095°04'0 0.0
2018-Apr-20 17:27N 29°47' W 095°04'0 0.0
2018-Apr-20 16:21N 29°47' W 095°04'0 0.0
2018-Apr-20 15:44N 29°47' W 095°04'0 0.0
2018-Apr-20 15:29N 29°47' W 095°04'2 0.7
2018-Apr-20 13:02N 29°46' W 095°06'0 4.8
2018-Apr-20 13:00N 29°46' W 095°05'0 0.6
2018-Apr-20 12:29N 29°46' W 095°05'1 2.9
2018-Apr-20 12:00N 29°47' W 095°04'1 1.6
2018-Apr-20 11:06N 29°46' W 095°05'2 4.3
2018-Apr-20 10:43N 29°44' W 095°03'1 5.2
2018-Apr-20 10:31N 29°44' W 095°02'2 4.1
2018-Apr-20 10:00N 29°42' W 095°01'2 4.5
2018-Apr-20 09:31N 29°41' W 094°59'2 4.6
2018-Apr-20 09:01N 29°39' W 094°58'3 5.1
2018-Apr-20 08:31N 29°36' W 094°57'3 5.2
2018-Apr-20 08:00N 29°34' W 094°55'3 5.4
2018-Apr-20 07:31N 29°32' W 094°54'2 4.7
2018-Apr-20 07:00N 29°30' W 094°52'29 3.3
2018-Apr-19 22:08N 29°37' W 094°19'1 5.1
2018-Apr-19 21:56N 29°38' W 094°18'2 5.2
2018-Apr-19 21:29N 29°39' W 094°16'3 5.4
2018-Apr-19 21:00N 29°40' W 094°13'3 5.4
2018-Apr-19 20:30N 29°41' W 094°11'3 5.2
2018-Apr-19 20:01N 29°42' W 094°08'3 5.4
2018-Apr-19 19:30N 29°44' W 094°05'3 5.3
2018-Apr-19 19:00N 29°46' W 094°03'3 5.4
2018-Apr-19 18:30N 29°48' W 094°01'2 4.5
2018-Apr-19 18:00N 29°49' W 093°59'2 4.1
2018-Apr-19 17:31N 29°50' W 093°57'3 6.1
2018-Apr-19 17:01N 29°53' W 093°55'3 5.7
2018-Apr-19 16:30N 29°55' W 093°53'3 5.8
2018-Apr-19 16:00N 29°58' W 093°51'1 1.4
2018-Apr-19 15:31N 29°58' W 093°51'0 0.0
2018-Apr-19 15:00N 29°58' W 093°51'0 0.3
2018-Apr-19 14:31N 29°58' W 093°51'0 0.2
2018-Apr-19 14:01N 29°58' W 093°51'2 4.3
2018-Apr-19 13:30N 29°59' W 093°53'1 2.4
2018-Apr-19 13:01N 29°60' W 093°55'0 0.1
2018-Apr-19 12:31N 29°60' W 093°55'1 2.0
2018-Apr-19 12:00N 29°59' W 093°54'3 6.2
2018-Apr-19 11:30N 29°59' W 093°50'3 6.9
2018-Apr-19 11:00N 29°60' W 093°46'4 7.1
2018-Apr-19 10:29N 30°03' W 093°44'4 6.2
2018-Apr-19 09:51N 30°04' W 093°39'2 6.0
2018-Apr-19 09:30N 30°04' W 093°37'3 5.2
2018-Apr-19 09:00N 30°04' W 093°34'2 5.0
2018-Apr-19 08:31N 30°04' W 093°31'2 5.0
2018-Apr-19 08:01N 30°04' W 093°28'2 4.9
2018-Apr-19 07:30N 30°04' W 093°25'2 4.8
2018-Apr-19 07:01N 30°04' W 093°23'0 0.9
2018-Apr-19 06:30N 30°04' W 093°23'3 7.0
2018-Apr-19 06:00N 30°04' W 093°27'3 6.8
2018-Apr-19 05:30N 30°04' W 093°31'4 6.9
2018-Apr-19 04:58N 30°04' W 093°35'4 6.9
2018-Apr-19 04:27N 30°04' W 093°39'3 6.6
2018-Apr-19 04:01N 30°03' W 093°43'3 5.6
2018-Apr-19 03:30N 30°01' W 093°45'3 5.8
2018-Apr-19 03:01N 29°59' W 093°47'3 6.3
2018-Apr-19 02:30N 29°58' W 093°51'0 0.1
2018-Apr-19 02:01N 29°58' W 093°51'2 3.9
2018-Apr-19 01:30N 29°56' W 093°52'2 4.4
2018-Apr-19 01:00N 29°55' W 093°53'3 5.8
2018-Apr-19 00:30N 29°53' W 093°56'3 5.5
2018-Apr-19 00:00N 29°50' W 093°57'3 5.4
2018-Apr-18 23:30N 29°49' W 093°60'3 6.4
2018-Apr-18 23:00N 29°46' W 094°02'3 6.5
2018-Apr-18 22:31N 29°44' W 094°05'3 6.5
2018-Apr-18 22:01N 29°42' W 094°08'2 4.2
2018-Apr-18 21:30N 29°41' W 094°10'2 4.7
2018-Apr-18 21:00N 29°40' W 094°13'3 6.5
2018-Apr-18 20:30N 29°39' W 094°16'3 6.4
2018-Apr-18 20:00N 29°38' W 094°19'4 6.0
2018-Apr-18 19:16N 29°36' W 094°24'25 3.8
2018-Apr-18 12:43N 29°25' W 094°50'1 6.1
2018-Apr-18 12:30N 29°26' W 094°50'3 6.7
2018-Apr-18 12:00N 29°29' W 094°52'4 7.1
2018-Apr-18 11:31N 29°32' W 094°54'4 7.6
2018-Apr-18 11:00N 29°35' W 094°56'4 8.1
2018-Apr-18 10:30N 29°39' W 094°58'7 6.6
2018-Apr-18 09:25N 29°44' W 095°04'2 2.0
2018-Apr-18 08:21N 29°45' W 095°06'0 0.4
2018-Apr-18 07:28N 29°46' W 095°06'0 0.1
2018-Apr-18 07:00N 29°46' W 095°06'2 3.6
2018-Apr-18 06:30N 29°47' W 095°04'0 0.3
2018-Apr-18 05:02N 29°47' W 095°04'0 0.1
2018-Apr-18 04:59N 29°47' W 095°04'0 0.0
2018-Apr-18 04:28N 29°47' W 095°04'0 0.1
2018-Apr-18 03:54N 29°47' W 095°04'0 1.2
2018-Apr-18 03:30N 29°47' W 095°04'1 1.2
2018-Apr-18 03:00N 29°47' W 095°05'0 0.6
2018-Apr-18 02:27N 29°46' W 095°05'1 2.9
2018-Apr-18 02:00N 29°45' W 095°04'3 4.8
2018-Apr-18 01:27N 29°44' W 095°02'2 4.3
2018-Apr-18 01:00N 29°42' W 095°00'3 5.2
2018-Apr-18 00:30N 29°40' W 094°59'3 5.2
2018-Apr-18 00:00N 29°38' W 094°58'3 5.1
2018-Apr-17 23:30N 29°35' W 094°56'3 5.4
2018-Apr-17 23:00N 29°33' W 094°55'3 5.4
2018-Apr-17 22:30N 29°31' W 094°53'3 5.1
2018-Apr-17 22:00N 29°29' W 094°51'24 3.4
2018-Apr-17 15:06N 29°35' W 094°25'1 4.3
2018-Apr-17 14:57N 29°35' W 094°25'2 3.4
2018-Apr-17 14:29N 29°36' W 094°23'2 4.3
2018-Apr-17 14:00N 29°37' W 094°21'2 4.4
2018-Apr-17 13:29N 29°38' W 094°19'2 4.4
2018-Apr-17 13:00N 29°39' W 094°17'2 4.5
2018-Apr-17 12:30N 29°40' W 094°14'2 4.7
2018-Apr-17 12:00N 29°41' W 094°12'2 4.6
2018-Apr-17 11:30N 29°42' W 094°09'2 3.9
2018-Apr-17 11:00N 29°43' W 094°08'2 4.5
2018-Apr-17 10:30N 29°44' W 094°06'2 4.9
2018-Apr-17 10:00N 29°46' W 094°03'2 4.9
2018-Apr-17 09:30N 29°47' W 094°01'2 4.3
2018-Apr-17 09:00N 29°49' W 093°60'2 3.5
2018-Apr-17 08:30N 29°49' W 093°58'2 4.7
2018-Apr-17 08:00N 29°52' W 093°56'3 5.3
2018-Apr-17 07:30N 29°54' W 093°55'3 5.7
2018-Apr-17 07:00N 29°56' W 093°52'3 5.3
2018-Apr-17 06:30N 29°58' W 093°51'0 0.3
2018-Apr-17 06:00N 29°58' W 093°51'0 0.1
2018-Apr-17 05:30N 29°58' W 093°51'0 0.3
2018-Apr-17 05:00N 29°58' W 093°51'0 0.1
2018-Apr-17 04:30N 29°58' W 093°51'0 0.1
2018-Apr-17 04:00N 29°58' W 093°51'0 0.0
2018-Apr-17 03:30N 29°58' W 093°51'0 0.1
2018-Apr-17 03:00N 29°58' W 093°51'0 0.1
2018-Apr-17 02:30N 29°58' W 093°51'0 0.2
2018-Apr-17 02:00N 29°58' W 093°51'0 0.9
2018-Apr-17 01:30N 29°58' W 093°52'3 5.4
2018-Apr-17 01:00N 29°59' W 093°54'0 0.8
2018-Apr-17 00:30N 29°60' W 093°55'0 0.0
2018-Apr-17 00:00N 29°60' W 093°55'0 0.1
2018-Apr-16 23:30N 29°60' W 093°55'0 0.1
2018-Apr-16 23:00N 29°60' W 093°55'0 0.1
2018-Apr-16 22:30N 29°60' W 093°55'0 0.1
2018-Apr-16 22:00N 29°60' W 093°55'0 0.0
2018-Apr-16 21:30N 29°60' W 093°55'0 0.0
2018-Apr-16 21:00N 29°60' W 093°55'0 0.0
2018-Apr-16 20:30N 29°60' W 093°55'0 0.0
2018-Apr-16 20:00N 29°60' W 093°55'0 0.1
2018-Apr-16 19:30N 29°60' W 093°55'2 4.4
2018-Apr-16 19:00N 29°60' W 093°57'3 6.4
2018-Apr-16 18:30N 30°01' W 094°01'3 6.0
2018-Apr-16 18:00N 30°04' W 094°02'1 1.9
2018-Apr-16 17:30N 30°04' W 094°03'1 2.1
2018-Apr-16 17:00N 30°04' W 094°02'3 5.3
2018-Apr-16 16:30N 30°01' W 094°01'2 4.7
2018-Apr-16 16:00N 30°01' W 093°58'3 5.2
2018-Apr-16 15:30N 29°59' W 093°56'1 1.9
2018-Apr-16 15:00N 29°60' W 093°55'0 0.4
2018-Apr-16 14:30N 29°60' W 093°55'0 0.0
2018-Apr-16 14:00N 29°60' W 093°55'0 0.0
2018-Apr-16 13:30N 29°60' W 093°55'0 0.0
2018-Apr-16 13:00N 29°60' W 093°55'0 0.0
2018-Apr-16 12:30N 29°60' W 093°55'0 0.0
2018-Apr-16 12:00N 29°60' W 093°55'0 0.0
2018-Apr-16 11:30N 29°60' W 093°55'0 0.3
2018-Apr-16 11:00N 29°60' W 093°55'3 5.2
2018-Apr-16 10:30N 29°59' W 093°52'3 5.8
2018-Apr-16 10:00N 29°56' W 093°52'3 6.8
2018-Apr-16 09:30N 29°53' W 093°55'3 6.4
2018-Apr-16 09:00N 29°51' W 093°57'3 5.0
2018-Apr-16 08:30N 29°49' W 093°59'2 4.8
2018-Apr-16 08:00N 29°47' W 094°01'3 5.1
2018-Apr-16 07:30N 29°46' W 094°03'3 5.1
2018-Apr-16 07:00N 29°44' W 094°06'3 5.4
2018-Apr-16 06:30N 29°42' W 094°08'3 5.3
2018-Apr-16 06:00N 29°41' W 094°11'3 5.2
2018-Apr-16 05:30N 29°40' W 094°14'3 5.0
2018-Apr-16 05:00N 29°39' W 094°16'2 4.8
2018-Apr-16 04:30N 29°38' W 094°19'2 4.8
2018-Apr-16 04:00N 29°37' W 094°21'3 4.5
2018-Apr-16 03:26N 29°36' W 094°24'25 2.6
2018-Apr-15 17:54N 29°28' W 094°51'3 7.1
2018-Apr-15 17:30N 29°31' W 094°53'3 6.4
2018-Apr-15 17:00N 29°33' W 094°55'3 5.9
2018-Apr-15 16:30N 29°36' W 094°57'3 6.7
2018-Apr-15 15:59N 29°39' W 094°58'4 8.1
2018-Apr-15 15:30N 29°42' W 095°01'  
Track history (hours):
 
Tides and Currents Weather Stations Pressure Air Temp Water Temp Dewpoint Dewpoint Depression Visibility Wind Speed Wind Dir Waves Ship Positions

Lady Of Lourdes

Owner: Marquette Transportation Company Gulf-Inland, LLC, Jefferson, LA. More information available from US FCC via Universal Licensing System and Coast Guard Vessel Documentation Center.

Last reported at 2018-Apr-25 14:00 UTC. Time now 2018-Apr-25 14:05 UTC.
Position N 29°46' W 095°06'.

Length 81 m; draft 3 m.

Type: . MMSI: 367367530.

Date/timePositionNaut miles runAvg speedWind from/ knotsBaromVisibWave heightAir tempDewpointWater temp
2018-Apr-25 14:00N 29°46' W 095°06'0 0.8
2018-Apr-25 13:30N 29°45' W 095°06'0 0.0
2018-Apr-25 13:00N 29°45' W 095°06'0 0.0
2018-Apr-25 12:30N 29°45' W 095°06'1 1.2
2018-Apr-25 12:00N 29°46' W 095°05'0 0.6
2018-Apr-25 11:30N 29°46' W 095°05'3 6.7
2018-Apr-25 10:59N 29°44' W 095°02'3 6.0
2018-Apr-25 10:30N 29°42' W 094°60'3 6.8
2018-Apr-25 10:00N 29°39' W 094°58'3 6.2
2018-Apr-25 09:30N 29°36' W 094°57'4 7.3
2018-Apr-25 09:00N 29°33' W 094°54'4 7.2
2018-Apr-25 08:30N 29°30' W 094°52'4 7.1
2018-Apr-25 08:00N 29°26' W 094°50'4 7.0
2018-Apr-25 07:26N 29°23' W 094°48'3 5.3
2018-Apr-25 06:51N 29°24' W 094°45'3 3.9
2018-Apr-25 06:12N 29°26' W 094°43'0 0.0
2018-Apr-25 06:00N 29°26' W 094°43'0 0.0
2018-Apr-25 05:30N 29°26' W 094°43'0 0.0
2018-Apr-25 05:00N 29°26' W 094°43'0 0.2
2018-Apr-25 04:30N 29°26' W 094°43'0 0.2
2018-Apr-25 03:58N 29°26' W 094°43'1 3.2
2018-Apr-25 03:30N 29°27' W 094°42'2 3.8
2018-Apr-25 03:00N 29°28' W 094°40'2 4.8
2018-Apr-25 02:30N 29°29' W 094°37'2 4.8
2018-Apr-25 02:00N 29°30' W 094°35'2 4.5
2018-Apr-25 01:27N 29°30' W 094°32'2 4.2
2018-Apr-25 00:58N 29°31' W 094°30'2 4.5
2018-Apr-25 00:30N 29°33' W 094°28'3 4.4
2018-Apr-24 23:45N 29°34' W 094°25'1 4.2
2018-Apr-24 23:26N 29°36' W 094°25'7 4.5
2018-Apr-24 21:57N 29°38' W 094°17'2 4.7
2018-Apr-24 21:27N 29°39' W 094°15'2 4.7
2018-Apr-24 21:00N 29°40' W 094°13'2 4.5
2018-Apr-24 20:30N 29°41' W 094°10'2 3.6
2018-Apr-24 20:00N 29°42' W 094°09'2 4.2
2018-Apr-24 19:30N 29°43' W 094°07'3 5.4
2018-Apr-24 19:00N 29°45' W 094°04'3 5.4
2018-Apr-24 18:30N 29°47' W 094°02'2 4.7
2018-Apr-24 18:00N 29°48' W 093°60'1 2.2
2018-Apr-24 17:30N 29°49' W 093°59'0 0.3
2018-Apr-24 17:00N 29°49' W 093°59'1 1.6
2018-Apr-24 16:30N 29°49' W 093°58'3 5.9
2018-Apr-24 16:00N 29°52' W 093°56'3 6.5
2018-Apr-24 15:30N 29°54' W 093°54'3 6.4
2018-Apr-24 15:00N 29°57' W 093°52'1 2.8
2018-Apr-24 14:30N 29°58' W 093°51'0 0.2
2018-Apr-24 14:00N 29°58' W 093°51'0 0.1
2018-Apr-24 13:30N 29°58' W 093°51'0 0.6
2018-Apr-24 13:00N 29°58' W 093°51'0 0.5
2018-Apr-24 12:30N 29°58' W 093°51'2 4.9
2018-Apr-24 12:00N 29°59' W 093°48'3 6.2
2018-Apr-24 11:30N 30°01' W 093°45'3 5.7
2018-Apr-24 11:00N 30°03' W 093°43'3 5.0
2018-Apr-24 10:30N 30°04' W 093°40'2 4.8
2018-Apr-24 10:00N 30°04' W 093°37'2 4.5
2018-Apr-24 09:30N 30°04' W 093°35'2 4.1
2018-Apr-24 09:00N 30°04' W 093°33'2 4.1
2018-Apr-24 08:30N 30°04' W 093°30'2 4.0
2018-Apr-24 08:00N 30°04' W 093°28'2 4.1
2018-Apr-24 07:30N 30°04' W 093°25'2 4.1
2018-Apr-24 07:00N 30°04' W 093°23'1 2.5
2018-Apr-24 06:30N 30°04' W 093°22'0 0.0
2018-Apr-24 06:00N 30°04' W 093°22'0 0.0
2018-Apr-24 05:30N 30°04' W 093°22'0 0.2
2018-Apr-24 05:00N 30°04' W 093°22'0 0.9
2018-Apr-24 04:30N 30°04' W 093°22'1 2.3
2018-Apr-24 04:00N 30°04' W 093°23'0 0.6
2018-Apr-24 03:30N 30°04' W 093°24'2 4.1
2018-Apr-24 03:00N 30°04' W 093°26'2 4.2
2018-Apr-24 02:30N 30°04' W 093°29'3 6.3
2018-Apr-24 02:00N 30°04' W 093°32'3 6.2
2018-Apr-24 01:30N 30°04' W 093°36'3 6.2
2018-Apr-24 01:00N 30°04' W 093°39'3 6.2
2018-Apr-24 00:29N 30°03' W 093°43'3 5.3
2018-Apr-24 00:00N 30°01' W 093°45'3 5.5
2018-Apr-23 23:30N 29°59' W 093°47'3 6.0
2018-Apr-23 23:00N 29°58' W 093°50'1 1.7
2018-Apr-23 22:30N 29°58' W 093°51'1 3.0
2018-Apr-23 22:00N 29°57' W 093°52'3 6.9
2018-Apr-23 21:30N 29°54' W 093°54'3 6.6
2018-Apr-23 21:00N 29°51' W 093°57'3 5.3
2018-Apr-23 20:30N 29°49' W 093°59'2 4.0
2018-Apr-23 20:00N 29°48' W 094°00'3 5.2
2018-Apr-23 19:30N 29°46' W 094°03'3 5.0
2018-Apr-23 19:00N 29°45' W 094°05'2 4.9
2018-Apr-23 18:30N 29°43' W 094°07'2 4.8
2018-Apr-23 17:59N 29°42' W 094°09'2 4.9
2018-Apr-23 17:30N 29°41' W 094°12'3 5.1
2018-Apr-23 17:00N 29°40' W 094°15'3 5.2
2018-Apr-23 16:30N 29°38' W 094°17'6 5.1
2018-Apr-23 15:21N 29°36' W 094°23'6 4.2
2018-Apr-23 14:01N 29°32' W 094°28'0 0.0
2018-Apr-23 14:00N 29°32' W 094°28'0 1.0
2018-Apr-23 13:30N 29°32' W 094°29'20 1.8
2018-Apr-23 02:22N 29°26' W 094°50'3 8.5
2018-Apr-23 02:00N 29°29' W 094°52'4 8.4
2018-Apr-23 01:30N 29°33' W 094°54'4 8.1
2018-Apr-23 01:00N 29°36' W 094°57'4 8.3
2018-Apr-23 00:30N 29°40' W 094°59'5 7.7
2018-Apr-22 23:54N 29°44' W 095°02'4 8.2
2018-Apr-22 23:28N 29°46' W 095°05'0 0.2
2018-Apr-22 21:52N 29°46' W 095°05'1 3.6
2018-Apr-22 21:30N 29°47' W 095°04'2 3.8
2018-Apr-22 21:01N 29°45' W 095°04'3 6.0
2018-Apr-22 20:30N 29°43' W 095°01'3 5.9
2018-Apr-22 20:00N 29°41' W 094°59'3 6.6
2018-Apr-22 19:30N 29°38' W 094°58'3 7.0
2018-Apr-22 19:00N 29°35' W 094°56'4 7.0
2018-Apr-22 18:30N 29°32' W 094°54'4 7.3
2018-Apr-22 18:00N 29°29' W 094°51'4 7.8
2018-Apr-22 17:28N 29°25' W 094°49'3 6.7
2018-Apr-22 17:00N 29°22' W 094°48'5 3.9
2018-Apr-22 15:41N 29°26' W 094°43'0 0.2
2018-Apr-22 15:18N 29°26' W 094°43'0 0.1
2018-Apr-22 14:47N 29°26' W 094°43'3 2.8
2018-Apr-22 13:41N 29°28' W 094°40'1 4.8
2018-Apr-22 13:30N 29°28' W 094°39'7 4.4
2018-Apr-22 11:53N 29°31' W 094°32'5 4.5
2018-Apr-22 10:41N 29°34' W 094°27'2 4.0
2018-Apr-22 10:17N 29°34' W 094°25'1 3.7
2018-Apr-22 10:00N 29°35' W 094°25'2 4.1
2018-Apr-22 09:26N 29°36' W 094°22'0 0.2
2018-Apr-22 09:00N 29°36' W 094°22'2 3.7
2018-Apr-22 08:30N 29°37' W 094°20'2 4.6
2018-Apr-22 08:00N 29°38' W 094°18'2 4.8
2018-Apr-22 07:30N 29°39' W 094°16'2 4.4
2018-Apr-22 07:00N 29°40' W 094°13'2 4.6
2018-Apr-22 06:30N 29°41' W 094°11'2 4.7
2018-Apr-22 06:00N 29°42' W 094°09'3 5.1
2018-Apr-22 05:30N 29°44' W 094°06'3 5.3
2018-Apr-22 05:01N 29°45' W 094°04'3 5.2
2018-Apr-22 04:30N 29°47' W 094°02'2 4.8
2018-Apr-22 04:00N 29°49' W 093°60'2 4.3
2018-Apr-22 03:31N 29°50' W 093°57'3 6.2
2018-Apr-22 03:00N 29°52' W 093°56'3 6.3
2018-Apr-22 02:31N 29°55' W 093°53'3 5.8
2018-Apr-22 02:01N 29°57' W 093°52'2 3.1
2018-Apr-22 01:30N 29°58' W 093°50'3 5.1
2018-Apr-22 01:00N 29°59' W 093°48'3 5.5
2018-Apr-22 00:28N 30°01' W 093°45'2 4.5
2018-Apr-22 00:00N 30°03' W 093°44'3 4.3
2018-Apr-21 23:25N 30°04' W 093°41'3 3.6
2018-Apr-21 22:38N 30°04' W 093°38'1 4.2
2018-Apr-21 22:26N 30°04' W 093°37'2 4.3
2018-Apr-21 22:00N 30°04' W 093°34'2 4.5
2018-Apr-21 21:30N 30°04' W 093°32'2 4.4
2018-Apr-21 21:00N 30°04' W 093°29'2 4.5
2018-Apr-21 20:30N 30°04' W 093°27'2 4.6
2018-Apr-21 20:00N 30°04' W 093°24'2 4.2
2018-Apr-21 19:30N 30°04' W 093°22'0 0.2
2018-Apr-21 19:01N 30°04' W 093°22'0 0.1
2018-Apr-21 18:31N 30°04' W 093°22'0 0.5
2018-Apr-21 18:00N 30°04' W 093°22'2 3.8
2018-Apr-21 17:30N 30°04' W 093°24'3 6.5
2018-Apr-21 17:00N 30°04' W 093°28'3 6.6
2018-Apr-21 16:31N 30°04' W 093°32'7 7.0
2018-Apr-21 15:34N 30°04' W 093°39'1 7.4
2018-Apr-21 15:28N 30°04' W 093°40'3 6.7
2018-Apr-21 15:00N 30°03' W 093°44'3 6.2
2018-Apr-21 14:30N 30°00' W 093°46'3 6.5
2018-Apr-21 14:00N 29°59' W 093°49'2 3.4
2018-Apr-21 13:30N 29°58' W 093°51'0 0.0
2018-Apr-21 13:00N 29°58' W 093°51'0 0.0
2018-Apr-21 12:30N 29°58' W 093°51'2 4.5
2018-Apr-21 12:00N 29°56' W 093°52'3 6.1
2018-Apr-21 11:30N 29°54' W 093°54'3 5.8
2018-Apr-21 11:00N 29°52' W 093°56'2 4.9
2018-Apr-21 10:30N 29°49' W 093°58'3 5.4
2018-Apr-21 10:01N 29°48' W 094°00'3 5.8
2018-Apr-21 09:30N 29°46' W 094°03'3 5.9
2018-Apr-21 09:00N 29°44' W 094°05'3 6.0
2018-Apr-21 08:30N 29°42' W 094°08'3 5.8
2018-Apr-21 08:00N 29°41' W 094°11'3 5.9
2018-Apr-21 07:30N 29°40' W 094°14'3 5.5
2018-Apr-21 07:00N 29°39' W 094°17'3 5.3
2018-Apr-21 06:30N 29°37' W 094°20'3 5.3
2018-Apr-21 05:57N 29°36' W 094°23'3 4.2
2018-Apr-21 05:10N 29°34' W 094°26'1 4.5
2018-Apr-21 05:00N 29°34' W 094°27'9 2.8
2018-Apr-21 01:58N 29°29' W 094°35'14 3.7
2018-Apr-20 22:14N 29°28' W 094°51'1 5.9
2018-Apr-20 22:01N 29°29' W 094°52'3 5.9
2018-Apr-20 21:31N 29°32' W 094°54'3 5.8
2018-Apr-20 21:01N 29°34' W 094°55'3 6.1
2018-Apr-20 20:30N 29°37' W 094°57'3 6.3
2018-Apr-20 19:58N 29°40' W 094°59'3 6.1
2018-Apr-20 19:31N 29°42' W 095°01'2 4.7
2018-Apr-20 18:59N 29°44' W 095°03'3 5.5
2018-Apr-20 18:21N 29°47' W 095°05'0 1.0
2018-Apr-20 18:00N 29°47' W 095°04'0 0.0
2018-Apr-20 17:27N 29°47' W 095°04'0 0.0
2018-Apr-20 16:21N 29°47' W 095°04'0 0.0
2018-Apr-20 15:44N 29°47' W 095°04'0 0.0
2018-Apr-20 15:29N 29°47' W 095°04'2 0.7
2018-Apr-20 13:02N 29°46' W 095°06'0 4.8
2018-Apr-20 13:00N 29°46' W 095°05'0 0.6
2018-Apr-20 12:29N 29°46' W 095°05'1 2.9
2018-Apr-20 12:00N 29°47' W 095°04'1 1.6
2018-Apr-20 11:06N 29°46' W 095°05'2 4.3
2018-Apr-20 10:43N 29°44' W 095°03'1 5.2
2018-Apr-20 10:31N 29°44' W 095°02'2 4.1
2018-Apr-20 10:00N 29°42' W 095°01'2 4.5
2018-Apr-20 09:31N 29°41' W 094°59'2 4.6
2018-Apr-20 09:01N 29°39' W 094°58'3 5.1
2018-Apr-20 08:31N 29°36' W 094°57'3 5.2
2018-Apr-20 08:00N 29°34' W 094°55'3 5.4
2018-Apr-20 07:31N 29°32' W 094°54'2 4.7
2018-Apr-20 07:00N 29°30' W 094°52'29 3.3
2018-Apr-19 22:08N 29°37' W 094°19'1 5.1
2018-Apr-19 21:56N 29°38' W 094°18'2 5.2
2018-Apr-19 21:29N 29°39' W 094°16'3 5.4
2018-Apr-19 21:00N 29°40' W 094°13'3 5.4
2018-Apr-19 20:30N 29°41' W 094°11'3 5.2
2018-Apr-19 20:01N 29°42' W 094°08'3 5.4
2018-Apr-19 19:30N 29°44' W 094°05'3 5.3
2018-Apr-19 19:00N 29°46' W 094°03'3 5.4
2018-Apr-19 18:30N 29°48' W 094°01'2 4.5
2018-Apr-19 18:00N 29°49' W 093°59'2 4.1
2018-Apr-19 17:31N 29°50' W 093°57'3 6.1
2018-Apr-19 17:01N 29°53' W 093°55'3 5.7
2018-Apr-19 16:30N 29°55' W 093°53'3 5.8
2018-Apr-19 16:00N 29°58' W 093°51'1 1.4
2018-Apr-19 15:31N 29°58' W 093°51'0 0.0
2018-Apr-19 15:00N 29°58' W 093°51'0 0.3
2018-Apr-19 14:31N 29°58' W 093°51'0 0.2
2018-Apr-19 14:01N 29°58' W 093°51'2 4.3
2018-Apr-19 13:30N 29°59' W 093°53'1 2.4
2018-Apr-19 13:01N 29°60' W 093°55'0 0.1
2018-Apr-19 12:31N 29°60' W 093°55'1 2.0
2018-Apr-19 12:00N 29°59' W 093°54'3 6.2
2018-Apr-19 11:30N 29°59' W 093°50'3 6.9
2018-Apr-19 11:00N 29°60' W 093°46'4 7.1
2018-Apr-19 10:29N 30°03' W 093°44'4 6.2
2018-Apr-19 09:51N 30°04' W 093°39'2 6.0
2018-Apr-19 09:30N 30°04' W 093°37'3 5.2
2018-Apr-19 09:00N 30°04' W 093°34'2 5.0
2018-Apr-19 08:31N 30°04' W 093°31'2 5.0
2018-Apr-19 08:01N 30°04' W 093°28'2 4.9
2018-Apr-19 07:30N 30°04' W 093°25'2 4.8
2018-Apr-19 07:01N 30°04' W 093°23'0 0.9
2018-Apr-19 06:30N 30°04' W 093°23'3 7.0
2018-Apr-19 06:00N 30°04' W 093°27'3 6.8
2018-Apr-19 05:30N 30°04' W 093°31'4 6.9
2018-Apr-19 04:58N 30°04' W 093°35'4 6.9
2018-Apr-19 04:27N 30°04' W 093°39'3 6.6
2018-Apr-19 04:01N 30°03' W 093°43'3 5.6
2018-Apr-19 03:30N 30°01' W 093°45'3 5.8
2018-Apr-19 03:01N 29°59' W 093°47'3 6.3
2018-Apr-19 02:30N 29°58' W 093°51'0 0.1
2018-Apr-19 02:01N 29°58' W 093°51'2 3.9
2018-Apr-19 01:30N 29°56' W 093°52'2 4.4
2018-Apr-19 01:00N 29°55' W 093°53'3 5.8
2018-Apr-19 00:30N 29°53' W 093°56'3 5.5
2018-Apr-19 00:00N 29°50' W 093°57'3 5.4
2018-Apr-18 23:30N 29°49' W 093°60'3 6.4
2018-Apr-18 23:00N 29°46' W 094°02'3 6.5
2018-Apr-18 22:31N 29°44' W 094°05'3 6.5
2018-Apr-18 22:01N 29°42' W 094°08'2 4.2
2018-Apr-18 21:30N 29°41' W 094°10'2 4.7
2018-Apr-18 21:00N 29°40' W 094°13'3 6.5
2018-Apr-18 20:30N 29°39' W 094°16'3 6.4
2018-Apr-18 20:00N 29°38' W 094°19'4 6.0
2018-Apr-18 19:16N 29°36' W 094°24'25 3.8
2018-Apr-18 12:43N 29°25' W 094°50'1 6.1
2018-Apr-18 12:30N 29°26' W 094°50'3 6.7
2018-Apr-18 12:00N 29°29' W 094°52'4 7.1
2018-Apr-18 11:31N 29°32' W 094°54'4 7.6
2018-Apr-18 11:00N 29°35' W 094°56'4 8.1
2018-Apr-18 10:30N 29°39' W 094°58'7 6.6
2018-Apr-18 09:25N 29°44' W 095°04'2 2.0
2018-Apr-18 08:21N 29°45' W 095°06'0 0.4
2018-Apr-18 07:28N 29°46' W 095°06'0 0.1
2018-Apr-18 07:00N 29°46' W 095°06'2 3.6
2018-Apr-18 06:30N 29°47' W 095°04'0 0.3
2018-Apr-18 05:02N 29°47' W 095°04'0 0.1
2018-Apr-18 04:59N 29°47' W 095°04'0 0.0
2018-Apr-18 04:28N 29°47' W 095°04'0 0.1
2018-Apr-18 03:54N 29°47' W 095°04'0 1.2
2018-Apr-18 03:30N 29°47' W 095°04'1 1.2
2018-Apr-18 03:00N 29°47' W 095°05'0 0.6
2018-Apr-18 02:27N 29°46' W 095°05'1 2.9
2018-Apr-18 02:00N 29°45' W 095°04'3 4.8
2018-Apr-18 01:27N 29°44' W 095°02'2 4.3
2018-Apr-18 01:00N 29°42' W 095°00'3 5.2
2018-Apr-18 00:30N 29°40' W 094°59'3 5.2
2018-Apr-18 00:00N 29°38' W 094°58'3 5.1
2018-Apr-17 23:30N 29°35' W 094°56'3 5.4
2018-Apr-17 23:00N 29°33' W 094°55'3 5.4
2018-Apr-17 22:30N 29°31' W 094°53'3 5.1
2018-Apr-17 22:00N 29°29' W 094°51'24 3.4
2018-Apr-17 15:06N 29°35' W 094°25'1 4.3
2018-Apr-17 14:57N 29°35' W 094°25'2 3.4
2018-Apr-17 14:29N 29°36' W 094°23'2 4.3
2018-Apr-17 14:00N 29°37' W 094°21'2 4.4
2018-Apr-17 13:29N 29°38' W 094°19'2 4.4
2018-Apr-17 13:00N 29°39' W 094°17'2 4.5
2018-Apr-17 12:30N 29°40' W 094°14'2 4.7
2018-Apr-17 12:00N 29°41' W 094°12'2 4.6
2018-Apr-17 11:30N 29°42' W 094°09'2 3.9
2018-Apr-17 11:00N 29°43' W 094°08'2 4.5
2018-Apr-17 10:30N 29°44' W 094°06'2 4.9
2018-Apr-17 10:00N 29°46' W 094°03'2 4.9
2018-Apr-17 09:30N 29°47' W 094°01'2 4.3
2018-Apr-17 09:00N 29°49' W 093°60'2 3.5
2018-Apr-17 08:30N 29°49' W 093°58'2 4.7
2018-Apr-17 08:00N 29°52' W 093°56'3 5.3
2018-Apr-17 07:30N 29°54' W 093°55'3 5.7
2018-Apr-17 07:00N 29°56' W 093°52'3 5.3
2018-Apr-17 06:30N 29°58' W 093°51'0 0.3
2018-Apr-17 06:00N 29°58' W 093°51'0 0.1
2018-Apr-17 05:30N 29°58' W 093°51'0 0.3
2018-Apr-17 05:00N 29°58' W 093°51'0 0.1
2018-Apr-17 04:30N 29°58' W 093°51'0 0.1
2018-Apr-17 04:00N 29°58' W 093°51'0 0.0
2018-Apr-17 03:30N 29°58' W 093°51'0 0.1
2018-Apr-17 03:00N 29°58' W 093°51'0 0.1
2018-Apr-17 02:30N 29°58' W 093°51'0 0.2
2018-Apr-17 02:00N 29°58' W 093°51'0 0.9
2018-Apr-17 01:30N 29°58' W 093°52'3 5.4
2018-Apr-17 01:00N 29°59' W 093°54'0 0.8
2018-Apr-17 00:30N 29°60' W 093°55'0 0.0
2018-Apr-17 00:00N 29°60' W 093°55'0 0.1
2018-Apr-16 23:30N 29°60' W 093°55'0 0.1
2018-Apr-16 23:00N 29°60' W 093°55'0 0.1
2018-Apr-16 22:30N 29°60' W 093°55'0 0.1
2018-Apr-16 22:00N 29°60' W 093°55'0 0.0
2018-Apr-16 21:30N 29°60' W 093°55'0 0.0
2018-Apr-16 21:00N 29°60' W 093°55'0 0.0
2018-Apr-16 20:30N 29°60' W 093°55'0 0.0
2018-Apr-16 20:00N 29°60' W 093°55'0 0.1
2018-Apr-16 19:30N 29°60' W 093°55'2 4.4
2018-Apr-16 19:00N 29°60' W 093°57'3 6.4
2018-Apr-16 18:30N 30°01' W 094°01'3 6.0
2018-Apr-16 18:00N 30°04' W 094°02'1 1.9
2018-Apr-16 17:30N 30°04' W 094°03'1 2.1
2018-Apr-16 17:00N 30°04' W 094°02'3 5.3
2018-Apr-16 16:30N 30°01' W 094°01'2 4.7
2018-Apr-16 16:00N 30°01' W 093°58'3 5.2
2018-Apr-16 15:30N 29°59' W 093°56'1 1.9
2018-Apr-16 15:00N 29°60' W 093°55'0 0.4
2018-Apr-16 14:30N 29°60' W 093°55'0 0.0
2018-Apr-16 14:00N 29°60' W 093°55'0 0.0
2018-Apr-16 13:30N 29°60' W 093°55'0 0.0
2018-Apr-16 13:00N 29°60' W 093°55'0 0.0
2018-Apr-16 12:30N 29°60' W 093°55'0 0.0
2018-Apr-16 12:00N 29°60' W 093°55'0 0.0
2018-Apr-16 11:30N 29°60' W 093°55'0 0.3
2018-Apr-16 11:00N 29°60' W 093°55'3 5.2
2018-Apr-16 10:30N 29°59' W 093°52'3 5.8
2018-Apr-16 10:00N 29°56' W 093°52'3 6.8
2018-Apr-16 09:30N 29°53' W 093°55'3 6.4
2018-Apr-16 09:00N 29°51' W 093°57'3 5.0
2018-Apr-16 08:30N 29°49' W 093°59'2 4.8
2018-Apr-16 08:00N 29°47' W 094°01'3 5.1
2018-Apr-16 07:30N 29°46' W 094°03'3 5.1
2018-Apr-16 07:00N 29°44' W 094°06'3 5.4
2018-Apr-16 06:30N 29°42' W 094°08'3 5.3
2018-Apr-16 06:00N 29°41' W 094°11'3 5.2
2018-Apr-16 05:30N 29°40' W 094°14'3 5.0
2018-Apr-16 05:00N 29°39' W 094°16'2 4.8
2018-Apr-16 04:30N 29°38' W 094°19'2 4.8
2018-Apr-16 04:00N 29°37' W 094°21'3 4.5
2018-Apr-16 03:26N 29°36' W 094°24'25 2.6
2018-Apr-15 17:54N 29°28' W 094°51'3 7.1
2018-Apr-15 17:30N 29°31' W 094°53'3 6.4
2018-Apr-15 17:00N 29°33' W 094°55'3 5.9
2018-Apr-15 16:30N 29°36' W 094°57'3 6.7
2018-Apr-15 15:59N 29°39' W 094°58'4 8.1
2018-Apr-15 15:30N 29°42' W 095°01'  

Dump ship's entire track history